Santa Quiteria, Brazil
Current Conditions -  °F | °C
As of 8:00 AM on Monday 20 Oct 2014 (Local Time) from SBFZ Reporting Station
Broken Clouds Broken Clouds  
Wind Chill: 82°   Ceiling: 2000
Heat Index: 85°   Visibility: 6mi
Dew Point: 68°   Wind: 22mph
Humidity: 62%   Direction: 110°ESE
Pressure: 29.91"   Gusts: NA
Location:  4.33°S, 40.16°W
Report Text: SBFZ 201100Z 11019KT 9999 BKN020 28/20 Q1013
Loading
Personal Weather Stations






























Interactive Weather Map
Tropical Storm Tracking
New forecast layout! Learn more

10-Day Weather Forecast

Advertisements
Track Severe Weather on mobile